Cardinal — V7IB3 — position and weather

sailwx.info

Track history (hours):
 
Tides and Currents Weather Stations Pressure Air Temp Water Temp Dewpoint Dewpoint Depression Visibility Wind Speed Wind Dir Waves Ship Positions

Cardinal

Last reported at 2014-Dec-20 11:32 UTC. Time now 2014-Dec-20 12:16 UTC.
Position N 59°12' E 010°57'.

Length 191 m; draft 9 m.

Type: Cargo ship. MMSI: 538002349.

Date/timePositionNaut miles runAvg speedWind from/ knotsBaromVisibWave heightAir tempDewpointWater temp
2014-Dec-20 11:32N 59°12' E 010°57'0 0.0
2014-Dec-20 10:32N 59°12' E 010°57'0 0.0
2014-Dec-20 09:32N 59°12' E 010°57'0 0.0
2014-Dec-20 08:32N 59°12' E 010°57'0 0.0
2014-Dec-20 07:32N 59°12' E 010°57'0 0.0
2014-Dec-20 06:32N 59°12' E 010°57'0 0.0
2014-Dec-20 05:32N 59°12' E 010°57'0 0.0
2014-Dec-20 04:32N 59°12' E 010°57'0 0.0
2014-Dec-20 03:32N 59°12' E 010°57'0 0.0
2014-Dec-20 02:32N 59°12' E 010°57'0 0.0
2014-Dec-20 01:32N 59°12' E 010°57'0 0.0
2014-Dec-20 00:32N 59°12' E 010°57'0 0.0
2014-Dec-19 23:32N 59°12' E 010°57'0 0.0
2014-Dec-19 22:32N 59°12' E 010°57'0 0.0
2014-Dec-19 21:32N 59°12' E 010°57'0 0.0
2014-Dec-19 20:32N 59°12' E 010°57'0 0.0
2014-Dec-19 19:32N 59°12' E 010°57'0 0.0
2014-Dec-19 18:32N 59°12' E 010°57'0 0.0
2014-Dec-19 17:32N 59°12' E 010°57'0 0.0
2014-Dec-19 16:32N 59°12' E 010°57'0 0.0
2014-Dec-19 15:32N 59°12' E 010°57'0 0.0
2014-Dec-19 14:32N 59°12' E 010°57'0 0.0
2014-Dec-19 13:32N 59°12' E 010°57'0 0.0
2014-Dec-19 12:32N 59°12' E 010°57'0 0.0
2014-Dec-19 11:32N 59°12' E 010°57'0 0.0
2014-Dec-19 10:32N 59°12' E 010°57'3 3.3
2014-Dec-19 09:33N 59°08' E 010°58'7 7.4
2014-Dec-19 08:33N 59°01' E 010°58'0 0.1
2014-Dec-19 07:31N 59°01' E 010°58'0 0.0
2014-Dec-19 06:31N 59°01' E 010°58'0 0.0
2014-Dec-19 05:31N 59°01' E 010°58'0 0.0
2014-Dec-19 04:31N 59°01' E 010°58'0 0.0
2014-Dec-19 03:31N 59°01' E 010°58'0 0.0
2014-Dec-19 02:22N 59°01' E 010°58'0 0.0
2014-Dec-19 01:28N 59°01' E 010°58'0 0.0
2014-Dec-19 00:31N 59°01' E 010°58'0 0.0
2014-Dec-18 23:28N 59°01' E 010°58'0 0.0
2014-Dec-18 22:31N 59°01' E 010°58'0 0.0
2014-Dec-18 21:28N 59°01' E 010°58'0 0.0
2014-Dec-18 20:33N 59°01' E 010°58'0 0.0
2014-Dec-18 19:33N 59°01' E 010°58'0 0.1
2014-Dec-18 18:33N 59°01' E 010°58'6 6.0
2014-Dec-18 17:33N 59°02' E 010°46'1110.7
2014-Dec-18 16:33N 58°55' E 010°31'1212.2
2014-Dec-18 15:33N 58°46' E 010°15'1412.0
2014-Dec-18 14:25N 58°37' E 009°56'2412.3
2014-Dec-18 12:31N 58°19' E 009°26'21012.3
2014-Dec-17 19:21N 55°21' E 006°02'911.4
2014-Dec-17 18:33N 55°13' E 005°54'1111.2
2014-Dec-17 17:33N 55°04' E 005°44'5110.3
2014-Dec-17 12:33N 54°16' E 005°09'1111.0
2014-Dec-17 11:31N 54°08' E 004°56'1111.0
2014-Dec-17 10:33N 53°60' E 004°44'8710.7
2014-Dec-17 02:29N 52°50' E 003°18'1111.7
2014-Dec-17 01:33N 52°41' E 003°09'6212.5
2014-Dec-16 20:33N 51°43' E 002°31'1212.6
2014-Dec-16 19:33N 51°33' E 002°19'1212.0
2014-Dec-16 18:32N 51°22' E 002°08'1110.8
2014-Dec-16 17:33N 51°13' E 002°01'1211.9
2014-Dec-16 16:33N 51°07' E 001°44'1110.7
2014-Dec-16 15:33N 50°60' E 001°33'1110.6
2014-Dec-16 14:33N 50°50' E 001°26'  
Track history (hours):
 
Tides and Currents Weather Stations Pressure Air Temp Water Temp Dewpoint Dewpoint Depression Visibility Wind Speed Wind Dir Waves Ship Positions

Cardinal

Last reported at 2014-Dec-20 11:32 UTC. Time now 2014-Dec-20 12:16 UTC.
Position N 59°12' E 010°57'.

Length 191 m; draft 9 m.

Type: Cargo ship. MMSI: 538002349.

Date/timePositionNaut miles runAvg speedWind from/ knotsBaromVisibWave heightAir tempDewpointWater temp
2014-Dec-20 11:32N 59°12' E 010°57'0 0.0
2014-Dec-20 10:32N 59°12' E 010°57'0 0.0
2014-Dec-20 09:32N 59°12' E 010°57'0 0.0
2014-Dec-20 08:32N 59°12' E 010°57'0 0.0
2014-Dec-20 07:32N 59°12' E 010°57'0 0.0
2014-Dec-20 06:32N 59°12' E 010°57'0 0.0
2014-Dec-20 05:32N 59°12' E 010°57'0 0.0
2014-Dec-20 04:32N 59°12' E 010°57'0 0.0
2014-Dec-20 03:32N 59°12' E 010°57'0 0.0
2014-Dec-20 02:32N 59°12' E 010°57'0 0.0
2014-Dec-20 01:32N 59°12' E 010°57'0 0.0
2014-Dec-20 00:32N 59°12' E 010°57'0 0.0
2014-Dec-19 23:32N 59°12' E 010°57'0 0.0
2014-Dec-19 22:32N 59°12' E 010°57'0 0.0
2014-Dec-19 21:32N 59°12' E 010°57'0 0.0
2014-Dec-19 20:32N 59°12' E 010°57'0 0.0
2014-Dec-19 19:32N 59°12' E 010°57'0 0.0
2014-Dec-19 18:32N 59°12' E 010°57'0 0.0
2014-Dec-19 17:32N 59°12' E 010°57'0 0.0
2014-Dec-19 16:32N 59°12' E 010°57'0 0.0
2014-Dec-19 15:32N 59°12' E 010°57'0 0.0
2014-Dec-19 14:32N 59°12' E 010°57'0 0.0
2014-Dec-19 13:32N 59°12' E 010°57'0 0.0
2014-Dec-19 12:32N 59°12' E 010°57'0 0.0
2014-Dec-19 11:32N 59°12' E 010°57'0 0.0
2014-Dec-19 10:32N 59°12' E 010°57'3 3.3
2014-Dec-19 09:33N 59°08' E 010°58'7 7.4
2014-Dec-19 08:33N 59°01' E 010°58'0 0.1
2014-Dec-19 07:31N 59°01' E 010°58'0 0.0
2014-Dec-19 06:31N 59°01' E 010°58'0 0.0
2014-Dec-19 05:31N 59°01' E 010°58'0 0.0
2014-Dec-19 04:31N 59°01' E 010°58'0 0.0
2014-Dec-19 03:31N 59°01' E 010°58'0 0.0
2014-Dec-19 02:22N 59°01' E 010°58'0 0.0
2014-Dec-19 01:28N 59°01' E 010°58'0 0.0
2014-Dec-19 00:31N 59°01' E 010°58'0 0.0
2014-Dec-18 23:28N 59°01' E 010°58'0 0.0
2014-Dec-18 22:31N 59°01' E 010°58'0 0.0
2014-Dec-18 21:28N 59°01' E 010°58'0 0.0
2014-Dec-18 20:33N 59°01' E 010°58'0 0.0
2014-Dec-18 19:33N 59°01' E 010°58'0 0.1
2014-Dec-18 18:33N 59°01' E 010°58'6 6.0
2014-Dec-18 17:33N 59°02' E 010°46'1110.7
2014-Dec-18 16:33N 58°55' E 010°31'1212.2
2014-Dec-18 15:33N 58°46' E 010°15'1412.0
2014-Dec-18 14:25N 58°37' E 009°56'2412.3
2014-Dec-18 12:31N 58°19' E 009°26'21012.3
2014-Dec-17 19:21N 55°21' E 006°02'911.4
2014-Dec-17 18:33N 55°13' E 005°54'1111.2
2014-Dec-17 17:33N 55°04' E 005°44'5110.3
2014-Dec-17 12:33N 54°16' E 005°09'1111.0
2014-Dec-17 11:31N 54°08' E 004°56'1111.0
2014-Dec-17 10:33N 53°60' E 004°44'8710.7
2014-Dec-17 02:29N 52°50' E 003°18'1111.7
2014-Dec-17 01:33N 52°41' E 003°09'6212.5
2014-Dec-16 20:33N 51°43' E 002°31'1212.6
2014-Dec-16 19:33N 51°33' E 002°19'1212.0
2014-Dec-16 18:32N 51°22' E 002°08'1110.8
2014-Dec-16 17:33N 51°13' E 002°01'1211.9
2014-Dec-16 16:33N 51°07' E 001°44'1110.7
2014-Dec-16 15:33N 50°60' E 001°33'1110.6
2014-Dec-16 14:33N 50°50' E 001°26'  

Dump ship's entire track history